sensor_id;sensor_type;location;lat;lon;timestamp;P1;durP1;ratioP1;P2;durP2;ratioP2
13406;SDS011;6774;48.208;10.766;2024-02-14T00:00:13;2.80;;;2.60;;
13406;SDS011;6774;48.208;10.766;2024-02-14T00:02:45;3.60;;;2.47;;
13406;SDS011;6774;48.208;10.766;2024-02-14T00:05:16;2.90;;;2.50;;
13406;SDS011;6774;48.208;10.766;2024-02-14T00:07:44;2.23;;;2.10;;
13406;SDS011;6774;48.208;10.766;2024-02-14T00:10:12;4.03;;;2.67;;
13406;SDS011;6774;48.208;10.766;2024-02-14T00:12:40;2.63;;;2.43;;
13406;SDS011;6774;48.208;10.766;2024-02-14T00:15:09;3.07;;;2.77;;
13406;SDS011;6774;48.208;10.766;2024-02-14T00:17:37;2.30;;;2.20;;
13406;SDS011;6774;48.208;10.766;2024-02-14T00:20:06;3.40;;;2.50;;
13406;SDS011;6774;48.208;10.766;2024-02-14T00:22:37;5.73;;;2.93;;
13406;SDS011;6774;48.208;10.766;2024-02-14T00:25:05;4.07;;;3.77;;
13406;SDS011;6774;48.208;10.766;2024-02-14T00:27:35;3.10;;;2.90;;
13406;SDS011;6774;48.208;10.766;2024-02-14T00:30:03;3.20;;;2.70;;
13406;SDS011;6774;48.208;10.766;2024-02-14T00:32:33;3.30;;;2.50;;
13406;SDS011;6774;48.208;10.766;2024-02-14T00:35:02;1.83;;;1.73;;
13406;SDS011;6774;48.208;10.766;2024-02-14T00:37:30;1.67;;;1.57;;
13406;SDS011;6774;48.208;10.766;2024-02-14T00:40:00;3.20;;;2.53;;
13406;SDS011;6774;48.208;10.766;2024-02-14T00:42:28;2.50;;;2.20;;
13406;SDS011;6774;48.208;10.766;2024-02-14T00:44:56;2.37;;;2.27;;
13406;SDS011;6774;48.208;10.766;2024-02-14T00:47:26;3.23;;;2.97;;
13406;SDS011;6774;48.208;10.766;2024-02-14T00:49:55;1.97;;;1.67;;
13406;SDS011;6774;48.208;10.766;2024-02-14T00:52:24;2.53;;;2.07;;
13406;SDS011;6774;48.208;10.766;2024-02-14T00:54:52;3.50;;;1.73;;
13406;SDS011;6774;48.208;10.766;2024-02-14T00:57:19;2.00;;;1.70;;
13406;SDS011;6774;48.208;10.766;2024-02-14T00:59:47;3.20;;;2.20;;
13406;SDS011;6774;48.208;10.766;2024-02-14T01:02:15;3.57;;;3.27;;
13406;SDS011;6774;48.208;10.766;2024-02-14T01:04:44;2.27;;;2.17;;
13406;SDS011;6774;48.208;10.766;2024-02-14T01:07:13;2.90;;;2.60;;
13406;SDS011;6774;48.208;10.766;2024-02-14T01:09:41;2.53;;;2.33;;
13406;SDS011;6774;48.208;10.766;2024-02-14T01:12:09;1.93;;;1.80;;
13406;SDS011;6774;48.208;10.766;2024-02-14T01:14:37;1.50;;;1.40;;
13406;SDS011;6774;48.208;10.766;2024-02-14T01:17:05;3.80;;;1.23;;
13406;SDS011;6774;48.208;10.766;2024-02-14T01:19:33;1.70;;;1.47;;
13406;SDS011;6774;48.208;10.766;2024-02-14T01:22:01;5.10;;;2.97;;
13406;SDS011;6774;48.208;10.766;2024-02-14T01:24:30;1.60;;;1.43;;
13406;SDS011;6774;48.208;10.766;2024-02-14T01:26:58;3.30;;;1.90;;
13406;SDS011;6774;48.208;10.766;2024-02-14T01:29:26;3.23;;;2.17;;
13406;SDS011;6774;48.208;10.766;2024-02-14T01:31:54;3.37;;;2.00;;
13406;SDS011;6774;48.208;10.766;2024-02-14T01:34:22;2.50;;;1.53;;
13406;SDS011;6774;48.208;10.766;2024-02-14T01:36:50;1.87;;;1.77;;
13406;SDS011;6774;48.208;10.766;2024-02-14T01:39:18;4.40;;;2.13;;
13406;SDS011;6774;48.208;10.766;2024-02-14T01:41:48;2.17;;;1.60;;
13406;SDS011;6774;48.208;10.766;2024-02-14T01:44:16;1.87;;;1.77;;
13406;SDS011;6774;48.208;10.766;2024-02-14T01:46:47;2.07;;;1.97;;
13406;SDS011;6774;48.208;10.766;2024-02-14T01:49:15;1.73;;;1.63;;
13406;SDS011;6774;48.208;10.766;2024-02-14T01:51:43;1.60;;;1.50;;
13406;SDS011;6774;48.208;10.766;2024-02-14T01:54:13;1.50;;;1.40;;
13406;SDS011;6774;48.208;10.766;2024-02-14T01:56:43;2.17;;;2.07;;
13406;SDS011;6774;48.208;10.766;2024-02-14T01:59:14;1.20;;;1.10;;
13406;SDS011;6774;48.208;10.766;2024-02-14T02:01:43;1.67;;;1.30;;
13406;SDS011;6774;48.208;10.766;2024-02-14T02:04:11;1.67;;;1.57;;
13406;SDS011;6774;48.208;10.766;2024-02-14T02:06:39;1.50;;;1.40;;
13406;SDS011;6774;48.208;10.766;2024-02-14T02:09:08;1.13;;;0.90;;
13406;SDS011;6774;48.208;10.766;2024-02-14T02:11:42;1.27;;;1.17;;
13406;SDS011;6774;48.208;10.766;2024-02-14T02:14:10;2.13;;;2.03;;
13406;SDS011;6774;48.208;10.766;2024-02-14T02:16:40;1.00;;;1.00;;
13406;SDS011;6774;48.208;10.766;2024-02-14T02:19:08;1.47;;;1.37;;
13406;SDS011;6774;48.208;10.766;2024-02-14T02:21:36;1.70;;;1.57;;
13406;SDS011;6774;48.208;10.766;2024-02-14T02:24:06;0.80;;;0.80;;
13406;SDS011;6774;48.208;10.766;2024-02-14T02:26:34;2.77;;;1.23;;
13406;SDS011;6774;48.208;10.766;2024-02-14T02:29:02;1.30;;;1.20;;
13406;SDS011;6774;48.208;10.766;2024-02-14T02:31:31;1.37;;;1.13;;
13406;SDS011;6774;48.208;10.766;2024-02-14T02:33:59;0.80;;;0.80;;
13406;SDS011;6774;48.208;10.766;2024-02-14T02:36:27;2.07;;;1.10;;
13406;SDS011;6774;48.208;10.766;2024-02-14T02:38:56;2.10;;;0.90;;
13406;SDS011;6774;48.208;10.766;2024-02-14T02:41:28;1.07;;;0.83;;
13406;SDS011;6774;48.208;10.766;2024-02-14T02:43:55;1.30;;;1.13;;
13406;SDS011;6774;48.208;10.766;2024-02-14T02:46:23;0.80;;;0.80;;
13406;SDS011;6774;48.208;10.766;2024-02-14T02:48:52;1.27;;;1.27;;
13406;SDS011;6774;48.208;10.766;2024-02-14T02:51:21;1.43;;;1.33;;
13406;SDS011;6774;48.208;10.766;2024-02-14T02:53:49;1.43;;;1.33;;
13406;SDS011;6774;48.208;10.766;2024-02-14T02:56:18;1.37;;;1.27;;
13406;SDS011;6774;48.208;10.766;2024-02-14T02:58:49;1.50;;;1.40;;
13406;SDS011;6774;48.208;10.766;2024-02-14T03:01:17;3.03;;;1.07;;
13406;SDS011;6774;48.208;10.766;2024-02-14T03:03:45;1.23;;;1.13;;
13406;SDS011;6774;48.208;10.766;2024-02-14T03:06:13;1.80;;;1.00;;
13406;SDS011;6774;48.208;10.766;2024-02-14T03:08:40;1.70;;;1.40;;
13406;SDS011;6774;48.208;10.766;2024-02-14T03:11:09;1.83;;;1.73;;
13406;SDS011;6774;48.208;10.766;2024-02-14T03:13:37;1.33;;;1.23;;
13406;SDS011;6774;48.208;10.766;2024-02-14T03:16:08;1.17;;;1.10;;
13406;SDS011;6774;48.208;10.766;2024-02-14T03:18:37;1.23;;;1.13;;
13406;SDS011;6774;48.208;10.766;2024-02-14T03:21:05;6.53;;;1.63;;
13406;SDS011;6774;48.208;10.766;2024-02-14T03:23:33;2.00;;;1.80;;
13406;SDS011;6774;48.208;10.766;2024-02-14T03:26:01;1.23;;;1.07;;
13406;SDS011;6774;48.208;10.766;2024-02-14T03:28:33;1.20;;;1.03;;
13406;SDS011;6774;48.208;10.766;2024-02-14T03:31:01;1.10;;;1.00;;
13406;SDS011;6774;48.208;10.766;2024-02-14T03:33:30;1.10;;;0.97;;
13406;SDS011;6774;48.208;10.766;2024-02-14T03:35:58;1.10;;;1.00;;
13406;SDS011;6774;48.208;10.766;2024-02-14T03:38:26;2.50;;;1.20;;
13406;SDS011;6774;48.208;10.766;2024-02-14T03:40:55;0.93;;;0.83;;
13406;SDS011;6774;48.208;10.766;2024-02-14T03:43:23;0.80;;;0.80;;
13406;SDS011;6774;48.208;10.766;2024-02-14T03:45:51;0.87;;;0.60;;
13406;SDS011;6774;48.208;10.766;2024-02-14T03:48:19;3.10;;;1.27;;
13406;SDS011;6774;48.208;10.766;2024-02-14T03:50:48;1.93;;;0.90;;
13406;SDS011;6774;48.208;10.766;2024-02-14T03:53:16;1.70;;;1.20;;
13406;SDS011;6774;48.208;10.766;2024-02-14T03:55:44;1.03;;;0.60;;
13406;SDS011;6774;48.208;10.766;2024-02-14T03:58:12;1.17;;;0.90;;
13406;SDS011;6774;48.208;10.766;2024-02-14T04:00:41;1.57;;;1.27;;
13406;SDS011;6774;48.208;10.766;2024-02-14T04:03:11;1.07;;;0.60;;
13406;SDS011;6774;48.208;10.766;2024-02-14T04:05:39;0.60;;;0.60;;
13406;SDS011;6774;48.208;10.766;2024-02-14T04:08:09;1.77;;;1.17;;
13406;SDS011;6774;48.208;10.766;2024-02-14T04:10:37;1.17;;;0.80;;
13406;SDS011;6774;48.208;10.766;2024-02-14T04:13:05;0.97;;;0.50;;
13406;SDS011;6774;48.208;10.766;2024-02-14T04:15:33;1.03;;;0.80;;
13406;SDS011;6774;48.208;10.766;2024-02-14T04:18:01;0.70;;;0.63;;
13406;SDS011;6774;48.208;10.766;2024-02-14T04:20:33;0.70;;;0.70;;
13406;SDS011;6774;48.208;10.766;2024-02-14T04:23:01;0.57;;;0.57;;
13406;SDS011;6774;48.208;10.766;2024-02-14T04:25:31;2.93;;;2.00;;
13406;SDS011;6774;48.208;10.766;2024-02-14T04:27:58;0.60;;;0.53;;
13406;SDS011;6774;48.208;10.766;2024-02-14T04:30:26;0.70;;;0.30;;
13406;SDS011;6774;48.208;10.766;2024-02-14T04:32:54;3.30;;;1.93;;
13406;SDS011;6774;48.208;10.766;2024-02-14T04:35:22;1.03;;;0.93;;
13406;SDS011;6774;48.208;10.766;2024-02-14T04:37:50;2.00;;;0.90;;
13406;SDS011;6774;48.208;10.766;2024-02-14T04:40:19;1.03;;;0.80;;
13406;SDS011;6774;48.208;10.766;2024-02-14T04:42:48;2.67;;;1.17;;
13406;SDS011;6774;48.208;10.766;2024-02-14T04:45:16;1.07;;;0.97;;
13406;SDS011;6774;48.208;10.766;2024-02-14T04:47:44;1.10;;;1.10;;
13406;SDS011;6774;48.208;10.766;2024-02-14T04:50:12;1.07;;;0.60;;
13406;SDS011;6774;48.208;10.766;2024-02-14T04:52:40;0.50;;;0.40;;
13406;SDS011;6774;48.208;10.766;2024-02-14T04:55:08;1.13;;;0.60;;
13406;SDS011;6774;48.208;10.766;2024-02-14T04:57:36;0.77;;;0.77;;
13406;SDS011;6774;48.208;10.766;2024-02-14T05:00:05;0.90;;;0.87;;
13406;SDS011;6774;48.208;10.766;2024-02-14T05:02:35;0.30;;;0.30;;
13406;SDS011;6774;48.208;10.766;2024-02-14T05:05:04;0.80;;;0.80;;
13406;SDS011;6774;48.208;10.766;2024-02-14T05:07:32;1.40;;;1.10;;
13406;SDS011;6774;48.208;10.766;2024-02-14T05:10:00;1.60;;;1.50;;
13406;SDS011;6774;48.208;10.766;2024-02-14T05:12:28;2.00;;;1.87;;
13406;SDS011;6774;48.208;10.766;2024-02-14T05:14:55;1.33;;;1.23;;
13406;SDS011;6774;48.208;10.766;2024-02-14T05:17:24;3.40;;;1.33;;
13406;SDS011;6774;48.208;10.766;2024-02-14T05:19:52;1.30;;;1.20;;
13406;SDS011;6774;48.208;10.766;2024-02-14T05:22:20;1.13;;;0.83;;
13406;SDS011;6774;48.208;10.766;2024-02-14T05:24:49;0.77;;;0.77;;
13406;SDS011;6774;48.208;10.766;2024-02-14T05:27:16;2.17;;;1.53;;
13406;SDS011;6774;48.208;10.766;2024-02-14T05:29:44;1.50;;;0.90;;
13406;SDS011;6774;48.208;10.766;2024-02-14T05:32:12;0.90;;;0.70;;
13406;SDS011;6774;48.208;10.766;2024-02-14T05:34:41;1.50;;;1.40;;
13406;SDS011;6774;48.208;10.766;2024-02-14T05:37:09;1.43;;;1.33;;
13406;SDS011;6774;48.208;10.766;2024-02-14T05:39:37;1.63;;;0.83;;
13406;SDS011;6774;48.208;10.766;2024-02-14T05:42:05;3.33;;;2.03;;
13406;SDS011;6774;48.208;10.766;2024-02-14T05:44:33;1.67;;;0.97;;
13406;SDS011;6774;48.208;10.766;2024-02-14T05:47:00;2.87;;;0.83;;
13406;SDS011;6774;48.208;10.766;2024-02-14T05:49:28;0.87;;;0.87;;
13406;SDS011;6774;48.208;10.766;2024-02-14T05:51:58;4.20;;;1.03;;
13406;SDS011;6774;48.208;10.766;2024-02-14T05:54:25;1.60;;;1.00;;
13406;SDS011;6774;48.208;10.766;2024-02-14T05:56:53;0.70;;;0.70;;
13406;SDS011;6774;48.208;10.766;2024-02-14T05:59:21;2.73;;;0.70;;
13406;SDS011;6774;48.208;10.766;2024-02-14T06:01:49;0.70;;;0.43;;
13406;SDS011;6774;48.208;10.766;2024-02-14T06:04:17;0.50;;;0.50;;
13406;SDS011;6774;48.208;10.766;2024-02-14T06:06:45;0.80;;;0.77;;
13406;SDS011;6774;48.208;10.766;2024-02-14T06:09:14;0.60;;;0.60;;
13406;SDS011;6774;48.208;10.766;2024-02-14T06:11:42;1.33;;;1.00;;
13406;SDS011;6774;48.208;10.766;2024-02-14T06:14:10;0.73;;;0.73;;
13406;SDS011;6774;48.208;10.766;2024-02-14T06:16:38;3.70;;;0.70;;
13406;SDS011;6774;48.208;10.766;2024-02-14T06:19:06;1.27;;;0.77;;
13406;SDS011;6774;48.208;10.766;2024-02-14T06:21:35;1.17;;;1.07;;
13406;SDS011;6774;48.208;10.766;2024-02-14T06:24:03;2.40;;;0.93;;
13406;SDS011;6774;48.208;10.766;2024-02-14T06:26:32;2.40;;;0.57;;
13406;SDS011;6774;48.208;10.766;2024-02-14T06:29:00;0.97;;;0.77;;
13406;SDS011;6774;48.208;10.766;2024-02-14T06:31:32;1.73;;;1.63;;
13406;SDS011;6774;48.208;10.766;2024-02-14T06:34:00;1.30;;;1.10;;
13406;SDS011;6774;48.208;10.766;2024-02-14T06:36:28;0.70;;;0.60;;
13406;SDS011;6774;48.208;10.766;2024-02-14T06:38:56;1.03;;;0.60;;
13406;SDS011;6774;48.208;10.766;2024-02-14T06:41:24;2.50;;;1.60;;
13406;SDS011;6774;48.208;10.766;2024-02-14T06:43:53;2.10;;;0.70;;
13406;SDS011;6774;48.208;10.766;2024-02-14T06:46:21;0.63;;;0.50;;
13406;SDS011;6774;48.208;10.766;2024-02-14T06:48:49;1.27;;;0.50;;
13406;SDS011;6774;48.208;10.766;2024-02-14T06:51:17;1.10;;;0.70;;
13406;SDS011;6774;48.208;10.766;2024-02-14T06:53:46;1.67;;;0.70;;
13406;SDS011;6774;48.208;10.766;2024-02-14T06:56:14;1.07;;;0.50;;
13406;SDS011;6774;48.208;10.766;2024-02-14T06:58:42;0.63;;;0.60;;
13406;SDS011;6774;48.208;10.766;2024-02-14T07:01:12;0.83;;;0.83;;
13406;SDS011;6774;48.208;10.766;2024-02-14T07:03:41;4.13;;;0.60;;
13406;SDS011;6774;48.208;10.766;2024-02-14T07:06:11;0.90;;;0.50;;
13406;SDS011;6774;48.208;10.766;2024-02-14T07:08:40;1.07;;;0.97;;
13406;SDS011;6774;48.208;10.766;2024-02-14T07:11:08;0.90;;;0.83;;
13406;SDS011;6774;48.208;10.766;2024-02-14T07:13:36;1.20;;;1.20;;
13406;SDS011;6774;48.208;10.766;2024-02-14T07:16:04;0.33;;;0.33;;
13406;SDS011;6774;48.208;10.766;2024-02-14T07:18:37;1.50;;;0.90;;
13406;SDS011;6774;48.208;10.766;2024-02-14T07:21:05;0.80;;;0.60;;
13406;SDS011;6774;48.208;10.766;2024-02-14T07:23:33;0.40;;;0.30;;
13406;SDS011;6774;48.208;10.766;2024-02-14T07:26:01;2.53;;;0.70;;
13406;SDS011;6774;48.208;10.766;2024-02-14T07:28:29;0.60;;;0.60;;
13406;SDS011;6774;48.208;10.766;2024-02-14T07:30:58;0.97;;;0.93;;
13406;SDS011;6774;48.208;10.766;2024-02-14T07:33:25;3.50;;;1.80;;
13406;SDS011;6774;48.208;10.766;2024-02-14T07:35:54;0.53;;;0.30;;
13406;SDS011;6774;48.208;10.766;2024-02-14T07:38:22;0.77;;;0.67;;
13406;SDS011;6774;48.208;10.766;2024-02-14T07:40:50;0.70;;;0.40;;
13406;SDS011;6774;48.208;10.766;2024-02-14T07:43:18;1.50;;;0.40;;
13406;SDS011;6774;48.208;10.766;2024-02-14T07:45:45;0.73;;;0.50;;
13406;SDS011;6774;48.208;10.766;2024-02-14T07:48:14;6.37;;;2.83;;
13406;SDS011;6774;48.208;10.766;2024-02-14T07:50:42;0.30;;;0.30;;
13406;SDS011;6774;48.208;10.766;2024-02-14T07:53:11;0.70;;;0.20;;
13406;SDS011;6774;48.208;10.766;2024-02-14T07:55:39;1.00;;;0.73;;
13406;SDS011;6774;48.208;10.766;2024-02-14T07:58:08;0.60;;;0.40;;
13406;SDS011;6774;48.208;10.766;2024-02-14T08:00:35;0.60;;;0.40;;
13406;SDS011;6774;48.208;10.766;2024-02-14T08:03:03;2.17;;;0.70;;
13406;SDS011;6774;48.208;10.766;2024-02-14T08:05:32;1.33;;;0.90;;
13406;SDS011;6774;48.208;10.766;2024-02-14T08:08:00;0.50;;;0.50;;
13406;SDS011;6774;48.208;10.766;2024-02-14T08:10:29;0.43;;;0.37;;
13406;SDS011;6774;48.208;10.766;2024-02-14T08:12:57;0.30;;;0.20;;
13406;SDS011;6774;48.208;10.766;2024-02-14T08:15:26;1.40;;;0.57;;
13406;SDS011;6774;48.208;10.766;2024-02-14T08:17:54;0.30;;;0.30;;
13406;SDS011;6774;48.208;10.766;2024-02-14T08:20:28;0.37;;;0.20;;
13406;SDS011;6774;48.208;10.766;2024-02-14T08:22:56;0.30;;;0.30;;
13406;SDS011;6774;48.208;10.766;2024-02-14T08:25:23;0.47;;;0.40;;
13406;SDS011;6774;48.208;10.766;2024-02-14T08:27:52;0.63;;;0.60;;
13406;SDS011;6774;48.208;10.766;2024-02-14T08:30:20;0.67;;;0.30;;
13406;SDS011;6774;48.208;10.766;2024-02-14T08:32:48;0.80;;;0.70;;
13406;SDS011;6774;48.208;10.766;2024-02-14T08:35:17;0.57;;;0.50;;
13406;SDS011;6774;48.208;10.766;2024-02-14T08:37:45;0.33;;;0.33;;
13406;SDS011;6774;48.208;10.766;2024-02-14T08:40:12;0.30;;;0.20;;
13406;SDS011;6774;48.208;10.766;2024-02-14T08:42:40;0.30;;;0.30;;
13406;SDS011;6774;48.208;10.766;2024-02-14T08:45:10;3.73;;;0.73;;
13406;SDS011;6774;48.208;10.766;2024-02-14T08:47:37;0.80;;;0.40;;
13406;SDS011;6774;48.208;10.766;2024-02-14T08:50:06;1.63;;;0.53;;
13406;SDS011;6774;48.208;10.766;2024-02-14T08:52:35;0.57;;;0.40;;
13406;SDS011;6774;48.208;10.766;2024-02-14T08:55:04;3.50;;;0.43;;
13406;SDS011;6774;48.208;10.766;2024-02-14T08:57:37;0.30;;;0.30;;
13406;SDS011;6774;48.208;10.766;2024-02-14T09:00:05;0.40;;;0.40;;
13406;SDS011;6774;48.208;10.766;2024-02-14T09:02:35;1.03;;;1.00;;
13406;SDS011;6774;48.208;10.766;2024-02-14T09:05:03;1.37;;;1.37;;
13406;SDS011;6774;48.208;10.766;2024-02-14T09:07:32;1.40;;;0.87;;
13406;SDS011;6774;48.208;10.766;2024-02-14T09:10:00;0.37;;;0.37;;
13406;SDS011;6774;48.208;10.766;2024-02-14T09:12:28;0.33;;;0.30;;
13406;SDS011;6774;48.208;10.766;2024-02-14T09:14:56;0.30;;;0.20;;
13406;SDS011;6774;48.208;10.766;2024-02-14T09:17:24;1.33;;;0.53;;
13406;SDS011;6774;48.208;10.766;2024-02-14T09:19:53;0.50;;;0.50;;
13406;SDS011;6774;48.208;10.766;2024-02-14T09:22:21;0.40;;;0.20;;
13406;SDS011;6774;48.208;10.766;2024-02-14T09:24:50;0.63;;;0.57;;
13406;SDS011;6774;48.208;10.766;2024-02-14T09:27:19;1.27;;;0.97;;
13406;SDS011;6774;48.208;10.766;2024-02-14T09:29:47;0.57;;;0.30;;
13406;SDS011;6774;48.208;10.766;2024-02-14T09:32:15;1.53;;;0.30;;
13406;SDS011;6774;48.208;10.766;2024-02-14T09:34:42;0.73;;;0.60;;
13406;SDS011;6774;48.208;10.766;2024-02-14T09:37:13;1.50;;;0.20;;
13406;SDS011;6774;48.208;10.766;2024-02-14T09:39:42;2.90;;;0.40;;
13406;SDS011;6774;48.208;10.766;2024-02-14T09:42:13;0.53;;;0.20;;
13406;SDS011;6774;48.208;10.766;2024-02-14T09:44:43;0.10;;;0.10;;
13406;SDS011;6774;48.208;10.766;2024-02-14T09:47:12;1.23;;;0.40;;
13406;SDS011;6774;48.208;10.766;2024-02-14T09:49:42;0.43;;;0.40;;
13406;SDS011;6774;48.208;10.766;2024-02-14T09:52:11;0.83;;;0.30;;
13406;SDS011;6774;48.208;10.766;2024-02-14T09:54:42;0.30;;;0.20;;
13406;SDS011;6774;48.208;10.766;2024-02-14T09:57:11;0.50;;;0.43;;
13406;SDS011;6774;48.208;10.766;2024-02-14T09:59:42;0.33;;;0.20;;
13406;SDS011;6774;48.208;10.766;2024-02-14T10:02:12;0.40;;;0.20;;
13406;SDS011;6774;48.208;10.766;2024-02-14T10:04:39;0.70;;;0.50;;
13406;SDS011;6774;48.208;10.766;2024-02-14T10:07:07;0.43;;;0.23;;
13406;SDS011;6774;48.208;10.766;2024-02-14T10:09:41;0.23;;;0.20;;
13406;SDS011;6774;48.208;10.766;2024-02-14T10:12:09;0.30;;;0.20;;
13406;SDS011;6774;48.208;10.766;2024-02-14T10:14:37;0.87;;;0.87;;
13406;SDS011;6774;48.208;10.766;2024-02-14T10:17:05;0.40;;;0.17;;
13406;SDS011;6774;48.208;10.766;2024-02-14T10:19:34;1.97;;;0.30;;
13406;SDS011;6774;48.208;10.766;2024-02-14T10:22:02;0.67;;;0.53;;
13406;SDS011;6774;48.208;10.766;2024-02-14T10:24:31;0.40;;;0.13;;
13406;SDS011;6774;48.208;10.766;2024-02-14T10:27:00;0.30;;;0.20;;
13406;SDS011;6774;48.208;10.766;2024-02-14T10:29:29;0.40;;;0.20;;
13406;SDS011;6774;48.208;10.766;2024-02-14T10:31:57;0.27;;;0.20;;
13406;SDS011;6774;48.208;10.766;2024-02-14T10:34:25;0.97;;;0.30;;
13406;SDS011;6774;48.208;10.766;2024-02-14T10:36:55;0.20;;;0.20;;
13406;SDS011;6774;48.208;10.766;2024-02-14T10:39:24;0.23;;;0.10;;
13406;SDS011;6774;48.208;10.766;2024-02-14T10:41:53;1.23;;;0.30;;
13406;SDS011;6774;48.208;10.766;2024-02-14T10:44:22;0.53;;;0.40;;
13406;SDS011;6774;48.208;10.766;2024-02-14T10:46:51;0.73;;;0.10;;
13406;SDS011;6774;48.208;10.766;2024-02-14T10:49:20;0.40;;;0.20;;
13406;SDS011;6774;48.208;10.766;2024-02-14T10:51:49;0.63;;;0.30;;
13406;SDS011;6774;48.208;10.766;2024-02-14T10:54:20;0.20;;;0.17;;
13406;SDS011;6774;48.208;10.766;2024-02-14T10:56:49;0.23;;;0.20;;
13406;SDS011;6774;48.208;10.766;2024-02-14T10:59:19;0.47;;;0.23;;
13406;SDS011;6774;48.208;10.766;2024-02-14T11:01:50;0.70;;;0.70;;
13406;SDS011;6774;48.208;10.766;2024-02-14T11:04:19;0.30;;;0.20;;
13406;SDS011;6774;48.208;10.766;2024-02-14T11:06:48;0.20;;;0.20;;
13406;SDS011;6774;48.208;10.766;2024-02-14T11:09:16;0.10;;;0.10;;
13406;SDS011;6774;48.208;10.766;2024-02-14T11:11:44;0.30;;;0.30;;
13406;SDS011;6774;48.208;10.766;2024-02-14T11:14:14;0.43;;;0.30;;
13406;SDS011;6774;48.208;10.766;2024-02-14T11:16:44;0.80;;;0.80;;
13406;SDS011;6774;48.208;10.766;2024-02-14T11:19:14;1.30;;;0.20;;
13406;SDS011;6774;48.208;10.766;2024-02-14T11:21:45;3.50;;;0.30;;
13406;SDS011;6774;48.208;10.766;2024-02-14T11:24:16;0.50;;;0.47;;
13406;SDS011;6774;48.208;10.766;2024-02-14T11:26:47;0.63;;;0.47;;
13406;SDS011;6774;48.208;10.766;2024-02-14T11:29:18;1.63;;;0.37;;
13406;SDS011;6774;48.208;10.766;2024-02-14T11:31:57;0.20;;;0.20;;
13406;SDS011;6774;48.208;10.766;2024-02-14T11:34:27;0.23;;;0.23;;
13406;SDS011;6774;48.208;10.766;2024-02-14T11:36:55;0.90;;;0.30;;
13406;SDS011;6774;48.208;10.766;2024-02-14T11:39:22;2.33;;;0.30;;
13406;SDS011;6774;48.208;10.766;2024-02-14T11:41:50;0.60;;;0.60;;
13406;SDS011;6774;48.208;10.766;2024-02-14T11:44:18;0.63;;;0.40;;
13406;SDS011;6774;48.208;10.766;2024-02-14T11:46:48;0.30;;;0.20;;
13406;SDS011;6774;48.208;10.766;2024-02-14T11:49:16;5.00;;;0.53;;
13406;SDS011;6774;48.208;10.766;2024-02-14T11:51:46;1.20;;;0.50;;
13406;SDS011;6774;48.208;10.766;2024-02-14T11:54:15;0.13;;;0.13;;
13406;SDS011;6774;48.208;10.766;2024-02-14T11:56:44;0.40;;;0.23;;
13406;SDS011;6774;48.208;10.766;2024-02-14T11:59:12;0.90;;;0.30;;
13406;SDS011;6774;48.208;10.766;2024-02-14T12:01:41;0.10;;;0.10;;
13406;SDS011;6774;48.208;10.766;2024-02-14T12:04:09;0.27;;;0.20;;
13406;SDS011;6774;48.208;10.766;2024-02-14T12:06:39;0.23;;;0.13;;
13406;SDS011;6774;48.208;10.766;2024-02-14T12:09:10;0.17;;;0.13;;
13406;SDS011;6774;48.208;10.766;2024-02-14T12:11:40;0.97;;;0.20;;
13406;SDS011;6774;48.208;10.766;2024-02-14T12:14:10;0.00;;;0.00;;
13406;SDS011;6774;48.208;10.766;2024-02-14T12:16:38;0.53;;;0.43;;
13406;SDS011;6774;48.208;10.766;2024-02-14T12:19:07;0.83;;;0.10;;
13406;SDS011;6774;48.208;10.766;2024-02-14T12:21:37;0.10;;;0.10;;
13406;SDS011;6774;48.208;10.766;2024-02-14T12:24:07;0.20;;;0.10;;
13406;SDS011;6774;48.208;10.766;2024-02-14T12:26:38;1.60;;;0.27;;
13406;SDS011;6774;48.208;10.766;2024-02-14T12:29:07;0.63;;;0.10;;
13406;SDS011;6774;48.208;10.766;2024-02-14T12:31:37;2.20;;;0.57;;
13406;SDS011;6774;48.208;10.766;2024-02-14T12:34:04;0.30;;;0.20;;
13406;SDS011;6774;48.208;10.766;2024-02-14T12:36:33;1.80;;;1.03;;
13406;SDS011;6774;48.208;10.766;2024-02-14T12:39:02;0.20;;;0.17;;
13406;SDS011;6774;48.208;10.766;2024-02-14T12:41:30;0.53;;;0.40;;
13406;SDS011;6774;48.208;10.766;2024-02-14T12:43:59;0.50;;;0.50;;
13406;SDS011;6774;48.208;10.766;2024-02-14T12:46:27;0.53;;;0.50;;
13406;SDS011;6774;48.208;10.766;2024-02-14T12:48:56;2.20;;;0.80;;
13406;SDS011;6774;48.208;10.766;2024-02-14T12:51:24;0.27;;;0.17;;
13406;SDS011;6774;48.208;10.766;2024-02-14T12:53:55;0.50;;;0.20;;
13406;SDS011;6774;48.208;10.766;2024-02-14T12:56:23;0.20;;;0.10;;
13406;SDS011;6774;48.208;10.766;2024-02-14T12:58:52;0.50;;;0.47;;
13406;SDS011;6774;48.208;10.766;2024-02-14T13:01:21;0.70;;;0.50;;
13406;SDS011;6774;48.208;10.766;2024-02-14T13:03:49;1.93;;;1.23;;
13406;SDS011;6774;48.208;10.766;2024-02-14T13:06:17;1.37;;;0.20;;
13406;SDS011;6774;48.208;10.766;2024-02-14T13:08:44;0.10;;;0.10;;
13406;SDS011;6774;48.208;10.766;2024-02-14T13:11:13;0.20;;;0.10;;
13406;SDS011;6774;48.208;10.766;2024-02-14T13:13:45;0.37;;;0.37;;
13406;SDS011;6774;48.208;10.766;2024-02-14T13:16:13;0.70;;;0.20;;
13406;SDS011;6774;48.208;10.766;2024-02-14T13:18:42;2.73;;;0.20;;
13406;SDS011;6774;48.208;10.766;2024-02-14T13:21:10;0.50;;;0.50;;
13406;SDS011;6774;48.208;10.766;2024-02-14T13:23:38;0.40;;;0.30;;
13406;SDS011;6774;48.208;10.766;2024-02-14T13:26:07;0.63;;;0.60;;
13406;SDS011;6774;48.208;10.766;2024-02-14T13:28:35;0.33;;;0.10;;
13406;SDS011;6774;48.208;10.766;2024-02-14T13:31:03;0.30;;;0.30;;
13406;SDS011;6774;48.208;10.766;2024-02-14T13:33:31;0.57;;;0.20;;
13406;SDS011;6774;48.208;10.766;2024-02-14T13:36:00;0.40;;;0.20;;
13406;SDS011;6774;48.208;10.766;2024-02-14T13:38:28;1.20;;;0.83;;
13406;SDS011;6774;48.208;10.766;2024-02-14T13:40:56;0.60;;;0.27;;
13406;SDS011;6774;48.208;10.766;2024-02-14T13:43:24;0.93;;;0.20;;
13406;SDS011;6774;48.208;10.766;2024-02-14T13:45:51;0.87;;;0.30;;
13406;SDS011;6774;48.208;10.766;2024-02-14T13:48:20;0.73;;;0.27;;
13406;SDS011;6774;48.208;10.766;2024-02-14T13:50:48;0.70;;;0.20;;
13406;SDS011;6774;48.208;10.766;2024-02-14T13:53:19;0.20;;;0.10;;
13406;SDS011;6774;48.208;10.766;2024-02-14T13:55:49;0.10;;;0.10;;
13406;SDS011;6774;48.208;10.766;2024-02-14T13:58:18;1.13;;;0.23;;
13406;SDS011;6774;48.208;10.766;2024-02-14T14:00:45;3.07;;;0.43;;
13406;SDS011;6774;48.208;10.766;2024-02-14T14:03:13;1.50;;;0.20;;
13406;SDS011;6774;48.208;10.766;2024-02-14T14:05:41;0.30;;;0.30;;
13406;SDS011;6774;48.208;10.766;2024-02-14T14:08:09;0.57;;;0.20;;
13406;SDS011;6774;48.208;10.766;2024-02-14T14:10:39;0.10;;;0.10;;
13406;SDS011;6774;48.208;10.766;2024-02-14T14:13:08;0.40;;;0.20;;
13406;SDS011;6774;48.208;10.766;2024-02-14T14:15:35;0.63;;;0.63;;
13406;SDS011;6774;48.208;10.766;2024-02-14T14:18:03;0.23;;;0.20;;
13406;SDS011;6774;48.208;10.766;2024-02-14T14:20:32;2.13;;;0.40;;
13406;SDS011;6774;48.208;10.766;2024-02-14T14:22:59;0.40;;;0.30;;
13406;SDS011;6774;48.208;10.766;2024-02-14T14:25:29;0.30;;;0.30;;
13406;SDS011;6774;48.208;10.766;2024-02-14T14:27:59;0.97;;;0.40;;
13406;SDS011;6774;48.208;10.766;2024-02-14T14:30:29;0.73;;;0.30;;
13406;SDS011;6774;48.208;10.766;2024-02-14T14:32:58;0.20;;;0.10;;
13406;SDS011;6774;48.208;10.766;2024-02-14T14:35:26;0.30;;;0.20;;
13406;SDS011;6774;48.208;10.766;2024-02-14T14:37:55;1.50;;;0.53;;
13406;SDS011;6774;48.208;10.766;2024-02-14T14:40:23;0.20;;;0.20;;
13406;SDS011;6774;48.208;10.766;2024-02-14T14:42:51;1.00;;;0.30;;
13406;SDS011;6774;48.208;10.766;2024-02-14T14:45:20;0.80;;;0.63;;
13406;SDS011;6774;48.208;10.766;2024-02-14T14:47:48;0.97;;;0.63;;
13406;SDS011;6774;48.208;10.766;2024-02-14T14:50:16;0.40;;;0.40;;
13406;SDS011;6774;48.208;10.766;2024-02-14T14:52:45;1.97;;;0.93;;
13406;SDS011;6774;48.208;10.766;2024-02-14T14:55:13;0.30;;;0.30;;